Terminal Aerodrome Forecast
Issued by NWS

Home | Current Version | Previous Version | Text Only | Print | Product List | Glossary On
Versions: 1 2 3 4 5 6 7 8 9 10 11 12 13 14 15 16 17
000
FTUS41 KPBZ 261600 AAA
TAFHLG
TAF AMD
KHLG 261658Z 2617/2712 01004KT 1/2SM SN OVC010
     FM261700 02005KT 2SM -SN BR OVC015
     FM262100 VRB03KT P6SM OVC020=

USA.gov is the U.S. government's official web portal to all federal, state and local government web resources and services.